createdAt,value
2019-02-11T00:09:19.783Z,91.1
2019-02-11T00:19:31.998Z,91.0
2019-02-11T00:29:46.778Z,91.2
2019-02-11T00:40:31.194Z,91.4
2019-02-11T00:50:44.569Z,91.3
2019-02-11T01:00:58.075Z,91.3
2019-02-11T01:11:11.773Z,91.5
2019-02-11T01:21:56.385Z,91.7
2019-02-11T01:32:09.647Z,91.6
2019-02-11T01:42:23.063Z,91.5
2019-02-11T01:52:36.282Z,91.6
2019-02-11T02:02:49.375Z,91.5
2019-02-11T02:13:02.572Z,91.6
2019-02-11T02:23:48.648Z,91.4
2019-02-11T02:34:01.685Z,91.4
2019-02-11T02:44:14.877Z,91.4
2019-02-11T02:54:28.428Z,91.4
2019-02-11T03:04:42.396Z,91.5
2019-02-11T03:14:55.600Z,91.5
2019-02-11T03:25:09.076Z,91.1
2019-02-11T03:35:22.997Z,91.1
2019-02-11T03:45:34.239Z,91.2
2019-02-11T03:55:47.466Z,91.2
2019-02-11T04:06:00.696Z,91.0
2019-02-11T04:16:45.257Z,90.8
2019-02-11T04:26:59.759Z,90.7
2019-02-11T04:37:13.285Z,90.7
2019-02-11T04:47:59.917Z,90.6
2019-02-11T04:58:46.446Z,90.5
2019-02-11T05:08:59.893Z,90.5
2019-02-11T05:19:15.170Z,90.7
2019-02-11T05:29:28.546Z,90.6
2019-02-11T05:39:42.393Z,90.6
2019-02-11T05:49:54.089Z,90.8
2019-02-11T06:00:08.500Z,90.7
2019-02-11T06:10:22.321Z,90.8
2019-02-11T06:20:35.418Z,90.7
2019-02-11T06:30:48.760Z,90.7
2019-02-11T06:41:02.730Z,90.8
2019-02-11T06:51:49.743Z,91.2
2019-02-11T07:02:34.497Z,91.3
2019-02-11T07:12:47.804Z,91.5
2019-02-11T07:23:32.413Z,91.5
2019-02-11T07:33:45.823Z,91.7
2019-02-11T07:43:59.172Z,91.6
2019-02-11T07:54:12.377Z,91.7
2019-02-11T08:04:25.372Z,91.8
2019-02-11T08:14:38.498Z,91.8
2019-02-11T08:24:51.980Z,91.7
2019-02-11T08:35:05.424Z,91.9
2019-02-11T08:45:51.958Z,92.1
2019-02-11T08:56:38.813Z,92.2
2019-02-11T09:06:51.925Z,92.8
2019-02-11T09:17:10.077Z,92.8
2019-02-11T09:27:16.737Z,92.7
2019-02-11T09:37:30.770Z,92.5
2019-02-11T09:47:44.629Z,92.0
2019-02-11T09:57:57.920Z,91.8
2019-02-11T10:08:42.656Z,91.7
2019-02-11T10:18:56.187Z,91.5
2019-02-11T10:29:09.990Z,91.8
2019-02-11T10:39:25.338Z,92.4
2019-02-11T10:49:36.435Z,93.9
2019-02-11T10:59:49.720Z,90.7
2019-02-11T11:10:03.013Z,87.4
2019-02-11T11:20:16.807Z,86.3
2019-02-11T11:31:03.787Z,89.4
2019-02-11T11:41:17.646Z,90.4
2019-02-11T11:52:07.376Z,90.6
2019-02-11T12:02:21.993Z,87.5
2019-02-11T12:12:35.615Z,79.7
2019-02-11T12:22:52.466Z,78.4
2019-02-11T12:33:04.471Z,80.3
2019-02-11T12:43:16.623Z,80.9
2019-02-11T12:53:28.621Z,81.9
2019-02-11T13:03:45.152Z,80.9
2019-02-11T13:13:59.870Z,78.1
2019-02-11T13:24:12.507Z,78.7
2019-02-11T13:34:23.701Z,81.0
2019-02-11T13:44:37.845Z,82.8
2019-02-11T13:54:51.098Z,84.1
2019-02-11T14:05:39.141Z,86.0
2019-02-11T14:16:26.819Z,86.9
2019-02-11T14:26:43.421Z,86.0
2019-02-11T14:36:55.737Z,85.0
2019-02-11T14:47:49.778Z,83.5
2019-02-11T14:58:03.519Z,82.7
2019-02-11T15:08:49.872Z,82.1
2019-02-11T15:19:37.979Z,81.7
2019-02-11T15:30:25.170Z,81.1
2019-02-11T15:40:37.185Z,79.7
2019-02-11T15:52:01.708Z,80.0
2019-02-11T16:02:14.684Z,79.6
2019-02-11T16:12:28.745Z,80.4
2019-02-11T16:22:42.639Z,80.3
2019-02-11T16:32:56.442Z,80.3
2019-02-11T16:43:11.520Z,80.7
2019-02-11T16:53:56.275Z,80.6
2019-02-11T17:04:42.921Z,80.4
2019-02-11T17:15:07.555Z,80.6
2019-02-11T17:25:21.733Z,80.7
2019-02-11T17:36:07.054Z,81.2
2019-02-11T17:47:18.909Z,81.4
2019-02-11T17:58:01.404Z,81.7
2019-02-11T18:08:19.651Z,82.1
2019-02-11T18:18:37.222Z,81.9
2019-02-11T18:28:52.796Z,82.2
2019-02-11T18:40:06.246Z,82.2
2019-02-11T18:51:22.803Z,82.3
2019-02-11T19:05:16.494Z,81.7
2019-02-11T19:17:44.371Z,81.8
2019-02-11T19:29:56.221Z,82.5
2019-02-11T19:40:56.277Z,82.7
2019-02-11T19:51:54.329Z,83.0
2019-02-11T20:03:23.732Z,83.1
2019-02-11T20:14:27.359Z,83.3
2019-02-11T20:25:51.554Z,83.6
2019-02-11T20:36:36.552Z,83.3
2019-02-11T20:47:40.612Z,83.4
2019-02-11T20:59:03.790Z,83.3
2019-02-11T21:09:58.291Z,83.7
2019-02-11T21:20:17.677Z,83.6
2019-02-11T21:30:29.415Z,83.9
2019-02-11T21:40:41.280Z,83.9
2019-02-11T21:50:54.218Z,84.4
2019-02-11T22:01:07.487Z,84.5
2019-02-11T22:11:19.397Z,84.6
2019-02-11T22:21:32.928Z,84.5
2019-02-11T22:31:46.755Z,84.8
2019-02-11T22:42:00.633Z,85.2
2019-02-11T22:52:13.667Z,86.4
2019-02-11T23:02:27.566Z,86.7
2019-02-11T23:12:41.327Z,86.5
2019-02-11T23:22:54.827Z,86.3
2019-02-11T23:33:09.153Z,86.0
2019-02-11T23:43:23.035Z,85.6
2019-02-11T23:53:34.452Z,85.3
